Shohomaru — JD3662 — position and weather

sailwx.info

Track history (hours):
 
Tides and Currents Weather Stations Pressure Air Temp Water Temp Dewpoint Dewpoint Depression Visibility Wind Speed Wind Dir Waves Ship Positions

Shohomaru

Last reported at 2017-Dec-17 05:53 UTC. Time now 2017-Dec-17 19:42 UTC.
Position N 34°41' E 135°12'.

Length 33 m; draft 3 m.

Type: Tug. MMSI: 431005375.

Date/timePositionNaut miles runAvg speedWind from/ knotsBaromVisibWave heightAir tempDewpointWater temp
2017-Dec-17 05:53N 34°41' E 135°12'0 0.0
2017-Dec-17 05:31N 34°41' E 135°12'0 0.0
2017-Dec-17 05:00N 34°41' E 135°12'0 0.0
2017-Dec-17 04:30N 34°41' E 135°12'0 0.0
2017-Dec-17 04:00N 34°41' E 135°12'0 0.0
2017-Dec-17 03:30N 34°41' E 135°12'3 5.2
2017-Dec-17 03:01N 34°41' E 135°15'0 0.9
2017-Dec-17 02:31N 34°41' E 135°16'1 3.0
2017-Dec-17 02:01N 34°40' E 135°18'3 5.8
2017-Dec-17 01:30N 34°41' E 135°14'2 3.2
2017-Dec-17 01:00N 34°41' E 135°12'0 0.0
2017-Dec-17 00:31N 34°41' E 135°12'0 0.0
2017-Dec-17 00:00N 34°41' E 135°12'0 0.0
2017-Dec-16 23:31N 34°41' E 135°12'0 0.0
2017-Dec-16 23:01N 34°41' E 135°12'0 0.0
2017-Dec-16 12:28N 34°41' E 135°12'1 2.9
2017-Dec-16 12:01N 34°40' E 135°11'0 0.2
2017-Dec-16 11:30N 34°40' E 135°11'0 0.0
2017-Dec-16 11:00N 34°40' E 135°11'0 0.0
2017-Dec-16 10:30N 34°40' E 135°11'0 0.0
2017-Dec-16 10:00N 34°40' E 135°11'0 0.0
2017-Dec-16 09:30N 34°40' E 135°11'3 5.4
2017-Dec-16 09:00N 34°41' E 135°14'1 1.7
2017-Dec-16 08:30N 34°40' E 135°14'2 3.1
2017-Dec-16 08:00N 34°39' E 135°16'3 6.4
2017-Dec-16 07:31N 34°41' E 135°13'1 1.0
2017-Dec-16 07:00N 34°41' E 135°12'0 0.0
2017-Dec-16 06:30N 34°41' E 135°12'0 0.0
2017-Dec-16 06:00N 34°41' E 135°12'0 0.0
2017-Dec-16 05:30N 34°41' E 135°12'0 0.0
2017-Dec-16 05:00N 34°41' E 135°12'0 0.0
2017-Dec-16 04:30N 34°41' E 135°12'0 0.0
2017-Dec-16 04:00N 34°41' E 135°12'0 0.0
2017-Dec-16 03:30N 34°41' E 135°12'0 0.0
2017-Dec-16 03:00N 34°41' E 135°12'0 0.0
2017-Dec-16 02:30N 34°41' E 135°12'0 0.0
2017-Dec-16 02:00N 34°41' E 135°12'0 0.0
2017-Dec-16 01:30N 34°41' E 135°12'0 0.0
2017-Dec-16 01:00N 34°41' E 135°12'0 0.0
2017-Dec-16 00:30N 34°41' E 135°12'0 0.0
2017-Dec-16 00:00N 34°41' E 135°12'0 0.0
2017-Dec-15 23:30N 34°41' E 135°12'0 0.0
2017-Dec-15 23:00N 34°41' E 135°12'  
2017-Dec-13 18:50N 34°41' E 135°12'0 0.6
2017-Dec-13 18:31N 34°40' E 135°12'2 3.8
2017-Dec-13 18:00N 34°40' E 135°14'0 0.1
2017-Dec-13 17:30N 34°40' E 135°14'1 1.4
2017-Dec-13 17:00N 34°40' E 135°14'0 0.0
2017-Dec-13 16:30N 34°40' E 135°14'0 0.0
2017-Dec-13 16:00N 34°40' E 135°14'0 0.0
2017-Dec-13 15:30N 34°40' E 135°14'0 0.0
2017-Dec-13 15:00N 34°40' E 135°14'0 0.0
2017-Dec-13 14:31N 34°40' E 135°14'0 0.0
2017-Dec-13 14:00N 34°40' E 135°14'0 0.0
2017-Dec-13 13:30N 34°40' E 135°14'0 0.0
2017-Dec-13 13:00N 34°40' E 135°14'0 1.0
2017-Dec-13 12:30N 34°40' E 135°14'1 2.9
2017-Dec-13 12:01N 34°39' E 135°16'2 4.3
2017-Dec-13 11:31N 34°40' E 135°13'0 0.2
2017-Dec-13 11:00N 34°40' E 135°13'0 0.0
2017-Dec-13 10:30N 34°40' E 135°13'0 0.0
2017-Dec-13 10:00N 34°40' E 135°13'1 1.6
2017-Dec-13 09:30N 34°40' E 135°14'1 1.4
2017-Dec-13 09:01N 34°40' E 135°15'1 2.7
2017-Dec-13 08:30N 34°39' E 135°16'3 5.5
2017-Dec-13 08:00N 34°41' E 135°14'0 0.0
2017-Dec-13 07:30N 34°41' E 135°14'0 0.0
2017-Dec-13 07:00N 34°41' E 135°14'0 0.5
2017-Dec-13 06:30N 34°41' E 135°15'2 3.9
2017-Dec-13 06:00N 34°42' E 135°17'1 1.8
2017-Dec-13 05:30N 34°42' E 135°16'3 6.2
2017-Dec-13 05:00N 34°41' E 135°12'0 0.0
2017-Dec-13 04:30N 34°41' E 135°12'0 0.0
2017-Dec-13 04:00N 34°41' E 135°12'0 0.0
2017-Dec-13 03:30N 34°41' E 135°12'0 0.0
2017-Dec-13 03:00N 34°41' E 135°12'0 0.0
2017-Dec-13 02:30N 34°41' E 135°12'1 1.2
2017-Dec-13 02:00N 34°40' E 135°12'1 2.5
2017-Dec-13 01:30N 34°39' E 135°11'1 2.6
2017-Dec-13 01:01N 34°40' E 135°12'0 0.3
2017-Dec-13 00:30N 34°41' E 135°12'0 0.0
2017-Dec-13 00:00N 34°41' E 135°12'3 5.7
2017-Dec-12 23:30N 34°41' E 135°16'1 2.3
2017-Dec-12 23:01N 34°41' E 135°17'1 1.3
2017-Dec-12 22:31N 34°41' E 135°18'0 0.6
2017-Dec-12 22:00N 34°40' E 135°18'3 6.5
2017-Dec-12 21:30N 34°41' E 135°14'1 2.7
2017-Dec-12 21:00N 34°41' E 135°12'0 0.0
2017-Dec-12 07:08N 34°41' E 135°12'0 0.0
2017-Dec-12 07:00N 34°41' E 135°12'2 4.7
2017-Dec-12 06:30N 34°41' E 135°15'2 3.8
2017-Dec-12 06:00N 34°41' E 135°17'1 1.1
2017-Dec-12 05:31N 34°40' E 135°18'4 7.3
2017-Dec-12 05:01N 34°41' E 135°13'1 2.1
2017-Dec-12 04:30N 34°41' E 135°12'0 0.0
2017-Dec-12 04:00N 34°41' E 135°12'0 0.0
2017-Dec-12 03:30N 34°41' E 135°12'0 0.0
2017-Dec-12 03:01N 34°41' E 135°12'0 0.0
2017-Dec-12 02:30N 34°41' E 135°12'0 0.0
2017-Dec-12 02:01N 34°41' E 135°12'0 0.0
2017-Dec-12 01:30N 34°41' E 135°12'0 0.0
2017-Dec-12 01:00N 34°41' E 135°12'0 0.0
2017-Dec-12 00:30N 34°41' E 135°12'1 2.3
2017-Dec-12 00:00N 34°41' E 135°14'611.4
2017-Dec-11 23:30N 34°40' E 135°20'3 6.1
2017-Dec-11 23:00N 34°39' E 135°24'0 0.2
2017-Dec-11 22:30N 34°39' E 135°24'2 3.0
2017-Dec-11 22:00N 34°38' E 135°22'5 9.4
2017-Dec-11 21:30N 34°41' E 135°17'4 8.5
2017-Dec-11 21:00N 34°41' E 135°12'0 0.0
2017-Dec-11 20:30N 34°41' E 135°12'0 0.0
2017-Dec-11 20:00N 34°41' E 135°12'0 0.0
2017-Dec-11 06:59N 34°41' E 135°12'0 0.0
2017-Dec-11 06:30N 34°41' E 135°12'0 0.0
2017-Dec-11 06:01N 34°41' E 135°12'0 0.0
2017-Dec-11 05:30N 34°41' E 135°12'1 2.8
2017-Dec-11 05:00N 34°41' E 135°14'1 2.0
2017-Dec-11 04:30N 34°41' E 135°15'1 1.8
2017-Dec-11 04:01N 34°40' E 135°15'0 0.1
2017-Dec-11 03:31N 34°40' E 135°15'1 2.1
2017-Dec-11 03:00N 34°41' E 135°14'0 0.0
2017-Dec-11 02:30N 34°41' E 135°14'0 0.0
2017-Dec-11 02:00N 34°41' E 135°14'0 0.0
2017-Dec-11 01:30N 34°41' E 135°14'0 0.0
2017-Dec-11 01:00N 34°41' E 135°14'0 0.0
2017-Dec-11 00:30N 34°41' E 135°14'0 0.0
2017-Dec-11 00:00N 34°41' E 135°14'1 2.2
2017-Dec-10 23:31N 34°42' E 135°15'0 0.3
2017-Dec-10 23:00N 34°42' E 135°16'1 1.1
2017-Dec-10 22:30N 34°42' E 135°15'2 4.4
2017-Dec-10 22:00N 34°40' E 135°15'2 4.0
2017-Dec-10 21:30N 34°41' E 135°14'1 2.2
2017-Dec-10 21:01N 34°41' E 135°12'0 0.0
2017-Dec-10 20:30N 34°41' E 135°12'0 0.0
2017-Dec-10 05:50N 34°41' E 135°12'0 0.0
2017-Dec-10 05:30N 34°41' E 135°12'0 0.0
2017-Dec-10 05:00N 34°41' E 135°12'0 0.0
2017-Dec-10 04:31N 34°41' E 135°12'0 0.0
2017-Dec-10 04:00N 34°41' E 135°12'0 0.0
2017-Dec-10 03:31N 34°41' E 135°12'0 0.0
2017-Dec-10 03:01N 34°41' E 135°12'1 1.8
2017-Dec-10 02:31N 34°40' E 135°11'1 1.1
2017-Dec-10 02:01N 34°39' E 135°12'0 0.5
2017-Dec-10 01:31N 34°40' E 135°12'1 2.1
2017-Dec-10 01:00N 34°41' E 135°12'0 0.0
2017-Dec-09 06:55N 34°41' E 135°12'0 0.0
2017-Dec-09 06:30N 34°41' E 135°12'0 0.0
2017-Dec-09 06:00N 34°41' E 135°12'0 0.0
2017-Dec-09 05:30N 34°41' E 135°12'0 0.0
2017-Dec-09 05:00N 34°41' E 135°12'0 0.0
2017-Dec-09 04:30N 34°41' E 135°12'0 0.0
2017-Dec-09 04:00N 34°41' E 135°12'0 0.0
2017-Dec-09 03:30N 34°41' E 135°12'2 4.1
2017-Dec-09 03:00N 34°41' E 135°15'1 2.2
2017-Dec-09 02:30N 34°40' E 135°15'0 0.6
2017-Dec-09 02:00N 34°40' E 135°15'2 4.9
2017-Dec-09 01:30N 34°41' E 135°12'0 0.0
2017-Dec-09 01:00N 34°41' E 135°12'0 0.0
2017-Dec-09 00:30N 34°41' E 135°12'0 0.0
2017-Dec-09 00:00N 34°41' E 135°12'0 0.0
2017-Dec-08 23:30N 34°41' E 135°12'0 0.0
2017-Dec-08 23:00N 34°41' E 135°12'0 0.0
2017-Dec-08 06:56N 34°41' E 135°12'0 0.0
2017-Dec-08 06:31N 34°41' E 135°12'0 0.0
2017-Dec-08 06:01N 34°41' E 135°12'0 0.0
2017-Dec-08 05:31N 34°41' E 135°12'0 0.0
2017-Dec-08 05:01N 34°41' E 135°12'0 0.0
2017-Dec-08 04:31N 34°41' E 135°12'0 0.0
2017-Dec-08 04:00N 34°41' E 135°12'0 0.0
2017-Dec-08 03:31N 34°41' E 135°12'0 0.0
2017-Dec-08 03:00N 34°41' E 135°12'0 0.0
2017-Dec-08 02:31N 34°41' E 135°12'0 0.0
2017-Dec-08 02:00N 34°41' E 135°12'0 0.0
2017-Dec-08 01:30N 34°41' E 135°12'3 5.6
2017-Dec-08 01:00N 34°42' E 135°15'2 3.3
2017-Dec-08 00:31N 34°42' E 135°17'1 1.6
2017-Dec-08 00:01N 34°42' E 135°18'0 0.8
2017-Dec-07 23:31N 34°41' E 135°18'4 8.7
2017-Dec-07 23:01N 34°41' E 135°13'1 1.1
2017-Dec-07 22:31N 34°41' E 135°12'0 0.0
2017-Dec-07 22:01N 34°41' E 135°12'0 0.0
2017-Dec-07 06:56N 34°41' E 135°12'0 0.0
2017-Dec-07 06:30N 34°41' E 135°12'0 0.0
2017-Dec-07 06:00N 34°41' E 135°12'  
Track history (hours):
 
Tides and Currents Weather Stations Pressure Air Temp Water Temp Dewpoint Dewpoint Depression Visibility Wind Speed Wind Dir Waves Ship Positions

Shohomaru

Last reported at 2017-Dec-17 05:53 UTC. Time now 2017-Dec-17 19:42 UTC.
Position N 34°41' E 135°12'.

Length 33 m; draft 3 m.

Type: Tug. MMSI: 431005375.

Date/timePositionNaut miles runAvg speedWind from/ knotsBaromVisibWave heightAir tempDewpointWater temp
2017-Dec-17 05:53N 34°41' E 135°12'0 0.0
2017-Dec-17 05:31N 34°41' E 135°12'0 0.0
2017-Dec-17 05:00N 34°41' E 135°12'0 0.0
2017-Dec-17 04:30N 34°41' E 135°12'0 0.0
2017-Dec-17 04:00N 34°41' E 135°12'0 0.0
2017-Dec-17 03:30N 34°41' E 135°12'3 5.2
2017-Dec-17 03:01N 34°41' E 135°15'0 0.9
2017-Dec-17 02:31N 34°41' E 135°16'1 3.0
2017-Dec-17 02:01N 34°40' E 135°18'3 5.8
2017-Dec-17 01:30N 34°41' E 135°14'2 3.2
2017-Dec-17 01:00N 34°41' E 135°12'0 0.0
2017-Dec-17 00:31N 34°41' E 135°12'0 0.0
2017-Dec-17 00:00N 34°41' E 135°12'0 0.0
2017-Dec-16 23:31N 34°41' E 135°12'0 0.0
2017-Dec-16 23:01N 34°41' E 135°12'0 0.0
2017-Dec-16 12:28N 34°41' E 135°12'1 2.9
2017-Dec-16 12:01N 34°40' E 135°11'0 0.2
2017-Dec-16 11:30N 34°40' E 135°11'0 0.0
2017-Dec-16 11:00N 34°40' E 135°11'0 0.0
2017-Dec-16 10:30N 34°40' E 135°11'0 0.0
2017-Dec-16 10:00N 34°40' E 135°11'0 0.0
2017-Dec-16 09:30N 34°40' E 135°11'3 5.4
2017-Dec-16 09:00N 34°41' E 135°14'1 1.7
2017-Dec-16 08:30N 34°40' E 135°14'2 3.1
2017-Dec-16 08:00N 34°39' E 135°16'3 6.4
2017-Dec-16 07:31N 34°41' E 135°13'1 1.0
2017-Dec-16 07:00N 34°41' E 135°12'0 0.0
2017-Dec-16 06:30N 34°41' E 135°12'0 0.0
2017-Dec-16 06:00N 34°41' E 135°12'0 0.0
2017-Dec-16 05:30N 34°41' E 135°12'0 0.0
2017-Dec-16 05:00N 34°41' E 135°12'0 0.0
2017-Dec-16 04:30N 34°41' E 135°12'0 0.0
2017-Dec-16 04:00N 34°41' E 135°12'0 0.0
2017-Dec-16 03:30N 34°41' E 135°12'0 0.0
2017-Dec-16 03:00N 34°41' E 135°12'0 0.0
2017-Dec-16 02:30N 34°41' E 135°12'0 0.0
2017-Dec-16 02:00N 34°41' E 135°12'0 0.0
2017-Dec-16 01:30N 34°41' E 135°12'0 0.0
2017-Dec-16 01:00N 34°41' E 135°12'0 0.0
2017-Dec-16 00:30N 34°41' E 135°12'0 0.0
2017-Dec-16 00:00N 34°41' E 135°12'0 0.0
2017-Dec-15 23:30N 34°41' E 135°12'0 0.0
2017-Dec-15 23:00N 34°41' E 135°12'  
2017-Dec-13 18:50N 34°41' E 135°12'0 0.6
2017-Dec-13 18:31N 34°40' E 135°12'2 3.8
2017-Dec-13 18:00N 34°40' E 135°14'0 0.1
2017-Dec-13 17:30N 34°40' E 135°14'1 1.4
2017-Dec-13 17:00N 34°40' E 135°14'0 0.0
2017-Dec-13 16:30N 34°40' E 135°14'0 0.0
2017-Dec-13 16:00N 34°40' E 135°14'0 0.0
2017-Dec-13 15:30N 34°40' E 135°14'0 0.0
2017-Dec-13 15:00N 34°40' E 135°14'0 0.0
2017-Dec-13 14:31N 34°40' E 135°14'0 0.0
2017-Dec-13 14:00N 34°40' E 135°14'0 0.0
2017-Dec-13 13:30N 34°40' E 135°14'0 0.0
2017-Dec-13 13:00N 34°40' E 135°14'0 1.0
2017-Dec-13 12:30N 34°40' E 135°14'1 2.9
2017-Dec-13 12:01N 34°39' E 135°16'2 4.3
2017-Dec-13 11:31N 34°40' E 135°13'0 0.2
2017-Dec-13 11:00N 34°40' E 135°13'0 0.0
2017-Dec-13 10:30N 34°40' E 135°13'0 0.0
2017-Dec-13 10:00N 34°40' E 135°13'1 1.6
2017-Dec-13 09:30N 34°40' E 135°14'1 1.4
2017-Dec-13 09:01N 34°40' E 135°15'1 2.7
2017-Dec-13 08:30N 34°39' E 135°16'3 5.5
2017-Dec-13 08:00N 34°41' E 135°14'0 0.0
2017-Dec-13 07:30N 34°41' E 135°14'0 0.0
2017-Dec-13 07:00N 34°41' E 135°14'0 0.5
2017-Dec-13 06:30N 34°41' E 135°15'2 3.9
2017-Dec-13 06:00N 34°42' E 135°17'1 1.8
2017-Dec-13 05:30N 34°42' E 135°16'3 6.2
2017-Dec-13 05:00N 34°41' E 135°12'0 0.0
2017-Dec-13 04:30N 34°41' E 135°12'0 0.0
2017-Dec-13 04:00N 34°41' E 135°12'0 0.0
2017-Dec-13 03:30N 34°41' E 135°12'0 0.0
2017-Dec-13 03:00N 34°41' E 135°12'0 0.0
2017-Dec-13 02:30N 34°41' E 135°12'1 1.2
2017-Dec-13 02:00N 34°40' E 135°12'1 2.5
2017-Dec-13 01:30N 34°39' E 135°11'1 2.6
2017-Dec-13 01:01N 34°40' E 135°12'0 0.3
2017-Dec-13 00:30N 34°41' E 135°12'0 0.0
2017-Dec-13 00:00N 34°41' E 135°12'3 5.7
2017-Dec-12 23:30N 34°41' E 135°16'1 2.3
2017-Dec-12 23:01N 34°41' E 135°17'1 1.3
2017-Dec-12 22:31N 34°41' E 135°18'0 0.6
2017-Dec-12 22:00N 34°40' E 135°18'3 6.5
2017-Dec-12 21:30N 34°41' E 135°14'1 2.7
2017-Dec-12 21:00N 34°41' E 135°12'0 0.0
2017-Dec-12 07:08N 34°41' E 135°12'0 0.0
2017-Dec-12 07:00N 34°41' E 135°12'2 4.7
2017-Dec-12 06:30N 34°41' E 135°15'2 3.8
2017-Dec-12 06:00N 34°41' E 135°17'1 1.1
2017-Dec-12 05:31N 34°40' E 135°18'4 7.3
2017-Dec-12 05:01N 34°41' E 135°13'1 2.1
2017-Dec-12 04:30N 34°41' E 135°12'0 0.0
2017-Dec-12 04:00N 34°41' E 135°12'0 0.0
2017-Dec-12 03:30N 34°41' E 135°12'0 0.0
2017-Dec-12 03:01N 34°41' E 135°12'0 0.0
2017-Dec-12 02:30N 34°41' E 135°12'0 0.0
2017-Dec-12 02:01N 34°41' E 135°12'0 0.0
2017-Dec-12 01:30N 34°41' E 135°12'0 0.0
2017-Dec-12 01:00N 34°41' E 135°12'0 0.0
2017-Dec-12 00:30N 34°41' E 135°12'1 2.3
2017-Dec-12 00:00N 34°41' E 135°14'611.4
2017-Dec-11 23:30N 34°40' E 135°20'3 6.1
2017-Dec-11 23:00N 34°39' E 135°24'0 0.2
2017-Dec-11 22:30N 34°39' E 135°24'2 3.0
2017-Dec-11 22:00N 34°38' E 135°22'5 9.4
2017-Dec-11 21:30N 34°41' E 135°17'4 8.5
2017-Dec-11 21:00N 34°41' E 135°12'0 0.0
2017-Dec-11 20:30N 34°41' E 135°12'0 0.0
2017-Dec-11 20:00N 34°41' E 135°12'0 0.0
2017-Dec-11 06:59N 34°41' E 135°12'0 0.0
2017-Dec-11 06:30N 34°41' E 135°12'0 0.0
2017-Dec-11 06:01N 34°41' E 135°12'0 0.0
2017-Dec-11 05:30N 34°41' E 135°12'1 2.8
2017-Dec-11 05:00N 34°41' E 135°14'1 2.0
2017-Dec-11 04:30N 34°41' E 135°15'1 1.8
2017-Dec-11 04:01N 34°40' E 135°15'0 0.1
2017-Dec-11 03:31N 34°40' E 135°15'1 2.1
2017-Dec-11 03:00N 34°41' E 135°14'0 0.0
2017-Dec-11 02:30N 34°41' E 135°14'0 0.0
2017-Dec-11 02:00N 34°41' E 135°14'0 0.0
2017-Dec-11 01:30N 34°41' E 135°14'0 0.0
2017-Dec-11 01:00N 34°41' E 135°14'0 0.0
2017-Dec-11 00:30N 34°41' E 135°14'0 0.0
2017-Dec-11 00:00N 34°41' E 135°14'1 2.2
2017-Dec-10 23:31N 34°42' E 135°15'0 0.3
2017-Dec-10 23:00N 34°42' E 135°16'1 1.1
2017-Dec-10 22:30N 34°42' E 135°15'2 4.4
2017-Dec-10 22:00N 34°40' E 135°15'2 4.0
2017-Dec-10 21:30N 34°41' E 135°14'1 2.2
2017-Dec-10 21:01N 34°41' E 135°12'0 0.0
2017-Dec-10 20:30N 34°41' E 135°12'0 0.0
2017-Dec-10 05:50N 34°41' E 135°12'0 0.0
2017-Dec-10 05:30N 34°41' E 135°12'0 0.0
2017-Dec-10 05:00N 34°41' E 135°12'0 0.0
2017-Dec-10 04:31N 34°41' E 135°12'0 0.0
2017-Dec-10 04:00N 34°41' E 135°12'0 0.0
2017-Dec-10 03:31N 34°41' E 135°12'0 0.0
2017-Dec-10 03:01N 34°41' E 135°12'1 1.8
2017-Dec-10 02:31N 34°40' E 135°11'1 1.1
2017-Dec-10 02:01N 34°39' E 135°12'0 0.5
2017-Dec-10 01:31N 34°40' E 135°12'1 2.1
2017-Dec-10 01:00N 34°41' E 135°12'0 0.0
2017-Dec-09 06:55N 34°41' E 135°12'0 0.0
2017-Dec-09 06:30N 34°41' E 135°12'0 0.0
2017-Dec-09 06:00N 34°41' E 135°12'0 0.0
2017-Dec-09 05:30N 34°41' E 135°12'0 0.0
2017-Dec-09 05:00N 34°41' E 135°12'0 0.0
2017-Dec-09 04:30N 34°41' E 135°12'0 0.0
2017-Dec-09 04:00N 34°41' E 135°12'0 0.0
2017-Dec-09 03:30N 34°41' E 135°12'2 4.1
2017-Dec-09 03:00N 34°41' E 135°15'1 2.2
2017-Dec-09 02:30N 34°40' E 135°15'0 0.6
2017-Dec-09 02:00N 34°40' E 135°15'2 4.9
2017-Dec-09 01:30N 34°41' E 135°12'0 0.0
2017-Dec-09 01:00N 34°41' E 135°12'0 0.0
2017-Dec-09 00:30N 34°41' E 135°12'0 0.0
2017-Dec-09 00:00N 34°41' E 135°12'0 0.0
2017-Dec-08 23:30N 34°41' E 135°12'0 0.0
2017-Dec-08 23:00N 34°41' E 135°12'0 0.0
2017-Dec-08 06:56N 34°41' E 135°12'0 0.0
2017-Dec-08 06:31N 34°41' E 135°12'0 0.0
2017-Dec-08 06:01N 34°41' E 135°12'0 0.0
2017-Dec-08 05:31N 34°41' E 135°12'0 0.0
2017-Dec-08 05:01N 34°41' E 135°12'0 0.0
2017-Dec-08 04:31N 34°41' E 135°12'0 0.0
2017-Dec-08 04:00N 34°41' E 135°12'0 0.0
2017-Dec-08 03:31N 34°41' E 135°12'0 0.0
2017-Dec-08 03:00N 34°41' E 135°12'0 0.0
2017-Dec-08 02:31N 34°41' E 135°12'0 0.0
2017-Dec-08 02:00N 34°41' E 135°12'0 0.0
2017-Dec-08 01:30N 34°41' E 135°12'3 5.6
2017-Dec-08 01:00N 34°42' E 135°15'2 3.3
2017-Dec-08 00:31N 34°42' E 135°17'1 1.6
2017-Dec-08 00:01N 34°42' E 135°18'0 0.8
2017-Dec-07 23:31N 34°41' E 135°18'4 8.7
2017-Dec-07 23:01N 34°41' E 135°13'1 1.1
2017-Dec-07 22:31N 34°41' E 135°12'0 0.0
2017-Dec-07 22:01N 34°41' E 135°12'0 0.0
2017-Dec-07 06:56N 34°41' E 135°12'0 0.0
2017-Dec-07 06:30N 34°41' E 135°12'0 0.0
2017-Dec-07 06:00N 34°41' E 135°12'  

Dump ship's entire track history